Time;durP1;ratioP1;P1;durP2;ratioP2;P2;SDS_P1;SDS_P2;PMS_P1;PMS_P2;Temp;Humidity;BMP_temperature;BMP_pressure;BME280_temperature;BME280_humidity;BME280_pressure;Samples;Min_cycle;Max_cycle;Signal;HPM_P1;HPM_P2
2023/06/28 00:00:36;;;;;;;8.10;2.28;;;;;;;;;;5095296;27;20066;-61
2023/06/28 00:03:04;;;;;;;5.47;1.80;;;;;;;;;;5101113;27;20101;-61
2023/06/28 00:05:31;;;;;;;4.13;1.85;;;;;;;;;;5100406;27;20052;-60
2023/06/28 00:07:57;;;;;;;5.28;1.55;;;;;;;;;;5094819;27;20052;-61
2023/06/28 00:10:23;;;;;;;2.42;1.73;;;;;;;;;;5093893;27;20114;-61
2023/06/28 00:12:50;;;;;;;6.38;1.30;;;;;;;;;;5101229;27;20472;-61
2023/06/28 00:15:16;;;;;;;3.63;2.13;;;;;;;;;;5101187;27;20056;-62
2023/06/28 00:17:42;;;;;;;2.75;1.40;;;;;;;;;;5103553;28;20052;-61
2023/06/28 00:20:10;;;;;;;3.50;1.67;;;;;;;;;;5102259;27;20052;-62
2023/06/28 00:22:39;;;;;;;3.33;1.48;;;;;;;;;;5082964;28;20371;-61
2023/06/28 00:25:06;;;;;;;1.38;1.10;;;;;;;;;;5096783;27;20044;-59
2023/06/28 00:27:32;;;;;;;5.90;2.35;;;;;;;;;;5098315;27;20494;-61
2023/06/28 00:29:59;;;;;;;2.92;1.45;;;;;;;;;;5101775;27;20084;-61
2023/06/28 00:32:26;;;;;;;9.88;2.70;;;;;;;;;;5102983;27;20052;-61
2023/06/28 00:34:53;;;;;;;2.70;1.48;;;;;;;;;;5100478;27;20052;-61
2023/06/28 00:37:19;;;;;;;2.08;0.93;;;;;;;;;;5103020;27;20053;-61
2023/06/28 00:39:45;;;;;;;1.77;1.20;;;;;;;;;;5102126;27;20087;-61
2023/06/28 00:42:12;;;;;;;2.17;1.35;;;;;;;;;;5103389;27;20056;-61
2023/06/28 00:44:38;;;;;;;1.92;1.00;;;;;;;;;;5103146;27;20139;-61
2023/06/28 00:47:06;;;;;;;5.45;1.92;;;;;;;;;;5105881;27;20140;-59
2023/06/28 00:49:35;;;;;;;2.88;1.27;;;;;;;;;;5105583;27;20052;-59
2023/06/28 00:52:01;;;;;;;3.28;0.93;;;;;;;;;;5103997;27;20621;-60
2023/06/28 00:54:27;;;;;;;1.45;1.13;;;;;;;;;;5099941;27;20665;-59
2023/06/28 00:56:54;;;;;;;1.67;1.00;;;;;;;;;;5100981;27;20119;-58
2023/06/28 00:59:21;;;;;;;1.77;1.00;;;;;;;;;;5106322;27;20461;-61
2023/06/28 01:01:50;;;;;;;1.90;0.77;;;;;;;;;;5104158;27;20409;-60
2023/06/28 01:04:16;;;;;;;1.45;1.33;;;;;;;;;;5102402;27;20647;-58
2023/06/28 01:06:51;;;;;;;2.38;1.27;;;;;;;;;;5106364;27;20052;-60
2023/06/28 01:09:18;;;;;;;1.88;1.20;;;;;;;;;;5105234;27;20053;-61
2023/06/28 01:11:45;;;;;;;2.70;1.63;;;;;;;;;;5102993;27;20109;-61
2023/06/28 01:14:12;;;;;;;3.38;1.92;;;;;;;;;;5103872;28;20059;-61
2023/06/28 01:16:39;;;;;;;3.17;1.30;;;;;;;;;;5096149;27;20130;-61
2023/06/28 01:19:07;;;;;;;1.42;1.17;;;;;;;;;;5083215;28;20625;-60
2023/06/28 01:21:36;;;;;;;4.32;1.42;;;;;;;;;;5095628;27;20056;-60
2023/06/28 01:24:02;;;;;;;2.42;1.27;;;;;;;;;;5099183;27;20075;-60
2023/06/28 01:26:29;;;;;;;4.10;1.20;;;;;;;;;;5104170;27;20048;-61
2023/06/28 01:28:56;;;;;;;2.05;1.05;;;;;;;;;;5105843;27;20493;-61
2023/06/28 01:31:23;;;;;;;2.45;1.38;;;;;;;;;;5092898;27;20105;-59
2023/06/28 01:33:49;;;;;;;2.15;1.38;;;;;;;;;;5104855;27;20052;-60
2023/06/28 01:36:15;;;;;;;7.05;1.60;;;;;;;;;;5104302;27;20510;-60
2023/06/28 01:38:42;;;;;;;1.48;1.23;;;;;;;;;;5097622;27;20150;-61
2023/06/28 01:41:09;;;;;;;3.60;1.17;;;;;;;;;;5085381;27;20055;-60
2023/06/28 01:43:35;;;;;;;1.95;1.35;;;;;;;;;;5086392;28;20059;-61
2023/06/28 01:46:01;;;;;;;2.22;1.40;;;;;;;;;;5105202;27;20091;-58
2023/06/28 01:48:29;;;;;;;3.80;1.58;;;;;;;;;;5104729;28;20428;-60
2023/06/28 01:50:55;;;;;;;4.32;1.50;;;;;;;;;;5104191;27;20040;-59
2023/06/28 01:53:22;;;;;;;2.90;1.80;;;;;;;;;;5103382;27;20114;-60
2023/06/28 01:55:48;;;;;;;3.65;1.42;;;;;;;;;;5101368;27;20514;-61
2023/06/28 01:58:15;;;;;;;3.70;1.40;;;;;;;;;;5087742;27;20143;-61
2023/06/28 02:00:41;;;;;;;3.55;1.42;;;;;;;;;;5101457;27;20142;-58
2023/06/28 02:03:08;;;;;;;3.58;1.25;;;;;;;;;;5110902;27;20052;-61
2023/06/28 02:05:35;;;;;;;3.10;1.35;;;;;;;;;;5105146;27;20510;-60
2023/06/28 02:08:02;;;;;;;3.53;1.30;;;;;;;;;;5094068;27;20059;-60
2023/06/28 02:10:29;;;;;;;1.88;1.17;;;;;;;;;;5095345;27;20048;-61
2023/06/28 02:12:56;;;;;;;2.35;1.60;;;;;;;;;;5098682;27;20547;-61
2023/06/28 02:15:24;;;;;;;5.28;1.50;;;;;;;;;;5104068;27;20048;-61
2023/06/28 02:17:55;;;;;;;2.88;1.52;;;;;;;;;;5103406;27;21629;-61
2023/06/28 02:20:21;;;;;;;3.28;1.27;;;;;;;;;;5093042;27;20512;-60
2023/06/28 02:22:48;;;;;;;2.10;1.35;;;;;;;;;;5103599;27;20928;-60
2023/06/28 02:25:14;;;;;;;5.20;1.77;;;;;;;;;;5102891;27;20464;-60
2023/06/28 02:27:41;;;;;;;4.00;1.42;;;;;;;;;;5103240;27;20079;-60
2023/06/28 02:30:07;;;;;;;3.70;2.03;;;;;;;;;;5103891;27;20160;-61
2023/06/28 02:32:34;;;;;;;4.68;1.55;;;;;;;;;;5100086;27;20052;-60
2023/06/28 02:35:00;;;;;;;5.35;1.50;;;;;;;;;;5103277;27;20055;-61
2023/06/28 02:37:26;;;;;;;2.05;1.40;;;;;;;;;;5089381;27;20052;-61
2023/06/28 02:39:53;;;;;;;2.00;1.38;;;;;;;;;;5102905;27;20063;-61
2023/06/28 02:42:19;;;;;;;3.65;1.55;;;;;;;;;;5103014;27;20047;-60
2023/06/28 02:44:45;;;;;;;3.67;1.65;;;;;;;;;;5097956;28;20082;-61
2023/06/28 02:47:12;;;;;;;2.08;1.38;;;;;;;;;;5099630;27;20114;-61
2023/06/28 02:49:38;;;;;;;2.78;1.60;;;;;;;;;;5102397;27;20113;-59
2023/06/28 02:52:05;;;;;;;2.20;1.85;;;;;;;;;;5102662;27;20059;-61
2023/06/28 02:54:31;;;;;;;2.80;1.65;;;;;;;;;;5084455;28;20060;-61
2023/06/28 02:56:58;;;;;;;4.88;1.75;;;;;;;;;;5100202;27;20044;-59
2023/06/28 02:59:24;;;;;;;4.63;1.85;;;;;;;;;;5095013;27;20056;-61
2023/06/28 03:01:50;;;;;;;3.78;2.15;;;;;;;;;;5103170;27;20056;-61
2023/06/28 03:04:17;;;;;;;3.65;2.03;;;;;;;;;;5092418;27;20091;-61
2023/06/28 03:06:47;;;;;;;4.70;1.95;;;;;;;;;;5097755;27;20082;-61
2023/06/28 03:09:13;;;;;;;3.50;2.22;;;;;;;;;;5104191;27;20051;-61
2023/06/28 03:11:40;;;;;;;5.10;2.25;;;;;;;;;;5097837;27;20154;-61
2023/06/28 03:14:06;;;;;;;4.80;1.60;;;;;;;;;;5103850;28;20059;-60
2023/06/28 03:16:32;;;;;;;1.67;1.27;;;;;;;;;;5102225;27;20143;-59
2023/06/28 03:18:59;;;;;;;5.15;2.08;;;;;;;;;;5103351;27;20882;-61
2023/06/28 03:21:25;;;;;;;3.03;1.88;;;;;;;;;;5101280;27;20093;-61
2023/06/28 03:23:52;;;;;;;2.65;1.52;;;;;;;;;;5091483;27;20087;-61
2023/06/28 03:26:18;;;;;;;4.75;1.65;;;;;;;;;;5084750;27;20052;-61
2023/06/28 03:28:44;;;;;;;3.60;2.20;;;;;;;;;;5101996;27;20105;-61
2023/06/28 03:31:11;;;;;;;7.00;1.60;;;;;;;;;;5098330;27;20101;-61
2023/06/28 03:33:37;;;;;;;6.97;1.73;;;;;;;;;;5094254;27;20540;-61
2023/06/28 03:36:03;;;;;;;6.85;1.90;;;;;;;;;;5084102;27;20639;-60
2023/06/28 03:38:30;;;;;;;2.53;1.80;;;;;;;;;;5104440;27;20059;-59
2023/06/28 03:40:56;;;;;;;3.55;2.13;;;;;;;;;;5083706;28;20140;-59
2023/06/28 03:43:23;;;;;;;2.90;1.75;;;;;;;;;;5090203;27;20055;-60
2023/06/28 03:45:49;;;;;;;5.10;1.75;;;;;;;;;;5102532;27;20151;-61
2023/06/28 03:48:18;;;;;;;3.83;1.95;;;;;;;;;;5102443;27;20699;-60
2023/06/28 03:50:44;;;;;;;4.75;1.95;;;;;;;;;;5103977;28;20052;-60
2023/06/28 03:53:11;;;;;;;1.98;1.73;;;;;;;;;;5094965;27;20052;-61
2023/06/28 03:55:37;;;;;;;2.95;1.73;;;;;;;;;;5096043;27;20048;-60
2023/06/28 03:58:03;;;;;;;3.40;2.40;;;;;;;;;;5084857;28;20056;-61
2023/06/28 04:00:30;;;;;;;7.05;2.58;;;;;;;;;;5102445;27;20064;-61
2023/06/28 04:02:56;;;;;;;3.22;1.92;;;;;;;;;;5100866;28;20541;-60
2023/06/28 04:05:22;;;;;;;3.00;2.20;;;;;;;;;;5090768;27;20082;-61
2023/06/28 04:07:54;;;;;;;9.98;2.83;;;;;;;;;;5102352;27;20048;-61
2023/06/28 04:10:21;;;;;;;4.22;2.80;;;;;;;;;;5100394;27;20082;-61
2023/06/28 04:12:47;;;;;;;4.03;2.40;;;;;;;;;;5102309;27;20048;-61
2023/06/28 04:15:14;;;;;;;6.03;2.88;;;;;;;;;;5099004;27;20102;-61
2023/06/28 04:17:40;;;;;;;3.10;2.47;;;;;;;;;;5091099;27;20132;-60
2023/06/28 04:20:07;;;;;;;4.60;2.78;;;;;;;;;;5099838;27;20147;-61
2023/06/28 04:22:34;;;;;;;8.52;3.20;;;;;;;;;;5083207;27;20045;-60
2023/06/28 04:25:00;;;;;;;9.10;2.83;;;;;;;;;;5100493;27;20409;-61
2023/06/28 04:27:27;;;;;;;6.43;2.78;;;;;;;;;;5100868;27;20489;-61
2023/06/28 04:29:53;;;;;;;3.22;2.13;;;;;;;;;;5101390;27;20059;-60
2023/06/28 04:32:24;;;;;;;6.18;2.75;;;;;;;;;;5100701;27;20517;-60
2023/06/28 04:34:53;;;;;;;6.00;2.72;;;;;;;;;;5110893;27;20054;-61
2023/06/28 04:37:20;;;;;;;6.85;2.70;;;;;;;;;;5100403;27;20120;-61
2023/06/28 04:39:46;;;;;;;4.18;2.65;;;;;;;;;;5098185;27;20052;-61
2023/06/28 04:42:16;;;;;;;5.65;2.90;;;;;;;;;;5101904;27;20134;-59
2023/06/28 04:44:43;;;;;;;5.15;3.75;;;;;;;;;;5101327;27;20056;-60
2023/06/28 04:47:15;;;;;;;6.38;3.05;;;;;;;;;;5092276;27;20106;-60
2023/06/28 04:49:50;;;;;;;9.70;3.58;;;;;;;;;;5098429;27;20091;-60
2023/06/28 04:52:18;;;;;;;;;;;;;;;;;;5100654;28;20052;-61
2023/06/28 04:54:45;;;;;;;6.10;3.40;;;;;;;;;;5098375;27;46543;-61
2023/06/28 04:57:13;;;;;;;6.50;3.28;;;;;;;;;;5101697;27;20056;-61
2023/06/28 04:59:39;;;;;;;4.50;3.28;;;;;;;;;;5083604;28;20131;-60
2023/06/28 05:02:06;;;;;;;5.95;3.10;;;;;;;;;;5092678;27;20836;-59
2023/06/28 05:04:32;;;;;;;8.55;3.50;;;;;;;;;;5089638;28;20052;-61
2023/06/28 05:07:03;;;;;;;6.97;3.67;;;;;;;;;;5087974;27;20072;-60
2023/06/28 05:09:30;;;;;;;5.55;3.17;;;;;;;;;;5099173;27;20133;-60
2023/06/28 05:11:57;;;;;;;7.50;2.83;;;;;;;;;;5100804;27;20147;-59
2023/06/28 05:14:24;;;;;;;9.73;3.50;;;;;;;;;;5096271;27;20109;-59
2023/06/28 05:16:51;;;;;;;8.35;3.28;;;;;;;;;;5082516;27;20646;-60
2023/06/28 05:19:18;;;;;;;11.20;4.10;;;;;;;;;;5102895;27;20458;-62
2023/06/28 05:21:44;;;;;;;7.38;3.97;;;;;;;;;;5085322;28;20055;-59
2023/06/28 05:24:11;;;;;;;12.40;3.90;;;;;;;;;;5098746;27;20097;-60
2023/06/28 05:26:37;;;;;;;7.70;3.50;;;;;;;;;;5104577;27;20056;-61
2023/06/28 05:29:03;;;;;;;5.93;3.10;;;;;;;;;;5106364;27;20064;-62
2023/06/28 05:31:30;;;;;;;5.18;3.45;;;;;;;;;;5092823;27;20158;-61
2023/06/28 05:33:56;;;;;;;5.80;3.90;;;;;;;;;;5099911;27;20072;-61
2023/06/28 05:36:23;;;;;;;7.47;3.70;;;;;;;;;;5103861;27;20055;-60
2023/06/28 05:38:49;;;;;;;7.45;3.53;;;;;;;;;;5093715;27;20265;-62
2023/06/28 05:41:16;;;;;;;6.75;3.90;;;;;;;;;;5089211;27;20060;-61
2023/06/28 05:43:44;;;;;;;5.03;3.25;;;;;;;;;;5081509;27;20049;-61
2023/06/28 05:46:11;;;;;;;9.63;4.13;;;;;;;;;;5089805;28;20061;-62
2023/06/28 05:48:38;;;;;;;5.68;3.90;;;;;;;;;;5097456;27;20056;-59
2023/06/28 05:51:10;;;;;;;6.28;3.40;;;;;;;;;;5100936;27;20052;-61
2023/06/28 05:53:38;;;;;;;8.20;4.20;;;;;;;;;;5104071;28;20060;-60
2023/06/28 05:56:04;;;;;;;7.57;3.75;;;;;;;;;;5102922;27;20163;-61
2023/06/28 05:58:30;;;;;;;5.63;3.90;;;;;;;;;;5104995;28;20052;-61
2023/06/28 06:00:57;;;;;;;7.30;4.40;;;;;;;;;;5103236;27;20560;-60
2023/06/28 06:03:23;;;;;;;6.78;4.00;;;;;;;;;;5102685;27;20138;-61
2023/06/28 06:05:50;;;;;;;5.85;4.05;;;;;;;;;;5104106;27;20080;-61
2023/06/28 06:08:16;;;;;;;6.28;4.15;;;;;;;;;;5102479;27;20052;-64
2023/06/28 06:10:43;;;;;;;7.78;3.53;;;;;;;;;;5103032;27;20515;-60
2023/06/28 06:13:09;;;;;;;8.65;3.72;;;;;;;;;;5105285;28;20051;-59
2023/06/28 06:15:35;;;;;;;8.52;3.97;;;;;;;;;;5095872;27;20076;-59
2023/06/28 06:18:02;;;;;;;11.25;3.83;;;;;;;;;;5101706;27;20084;-61
2023/06/28 06:20:30;;;;;;;7.85;3.90;;;;;;;;;;5103190;27;20098;-61
2023/06/28 06:22:57;;;;;;;6.22;3.50;;;;;;;;;;5091720;27;20057;-61
2023/06/28 06:25:23;;;;;;;5.80;3.97;;;;;;;;;;5083784;28;20056;-61
2023/06/28 06:27:50;;;;;;;12.88;4.88;;;;;;;;;;5089080;28;20521;-62
2023/06/28 06:30:16;;;;;;;7.32;3.83;;;;;;;;;;5104459;28;20056;-61
2023/06/28 06:32:42;;;;;;;8.32;4.10;;;;;;;;;;5104341;27;20083;-57
2023/06/28 06:35:09;;;;;;;7.38;4.15;;;;;;;;;;5088919;28;20051;-61
2023/06/28 06:37:35;;;;;;;7.30;4.28;;;;;;;;;;5103814;27;20058;-60
2023/06/28 06:40:03;;;;;;;7.22;3.97;;;;;;;;;;5102630;28;20048;-61
2023/06/28 06:42:29;;;;;;;12.18;4.43;;;;;;;;;;5083926;27;20055;-60
2023/06/28 06:44:55;;;;;;;9.48;4.55;;;;;;;;;;5102435;27;20052;-61
2023/06/28 06:47:22;;;;;;;7.45;4.15;;;;;;;;;;5103182;27;20058;-60
2023/06/28 06:49:48;;;;;;;12.93;5.28;;;;;;;;;;5104991;27;20052;-61
2023/06/28 06:52:15;;;;;;;8.73;4.20;;;;;;;;;;5102604;27;20064;-62
2023/06/28 06:54:41;;;;;;;9.65;4.53;;;;;;;;;;5101449;27;20044;-61
2023/06/28 06:57:07;;;;;;;9.15;5.32;;;;;;;;;;5103919;27;20515;-62
2023/06/28 06:59:34;;;;;;;10.98;4.30;;;;;;;;;;5103114;27;20052;-61
2023/06/28 07:02:00;;;;;;;9.68;4.95;;;;;;;;;;5104449;27;20058;-59
2023/06/28 07:04:27;;;;;;;11.07;5.53;;;;;;;;;;5105237;27;20059;-61
2023/06/28 07:06:55;;;;;;;7.93;4.55;;;;;;;;;;5103950;28;20062;-59
2023/06/28 07:09:21;;;;;;;7.55;5.45;;;;;;;;;;5103093;27;20073;-60
2023/06/28 07:11:48;;;;;;;11.88;5.00;;;;;;;;;;5103788;28;20048;-61
2023/06/28 07:14:14;;;;;;;6.18;4.22;;;;;;;;;;5102431;27;20499;-60
2023/06/28 07:16:44;;;;;;;13.02;4.70;;;;;;;;;;5103184;27;20610;-58
2023/06/28 07:19:12;;;;;;;12.45;5.38;;;;;;;;;;5090885;27;20059;-58
2023/06/28 07:21:40;;;;;;;9.82;5.10;;;;;;;;;;5103966;27;20080;-58
2023/06/28 07:24:07;;;;;;;15.85;4.60;;;;;;;;;;5101764;27;20051;-60
2023/06/28 07:26:34;;;;;;;15.55;4.45;;;;;;;;;;5103754;28;20052;-60
2023/06/28 07:29:00;;;;;;;10.15;4.25;;;;;;;;;;5102763;27;20055;-59
2023/06/28 07:31:27;;;;;;;7.13;3.83;;;;;;;;;;5103895;27;20131;-60
2023/06/28 07:33:53;;;;;;;8.40;4.03;;;;;;;;;;5103392;27;20048;-60
2023/06/28 07:36:19;;;;;;;7.93;4.25;;;;;;;;;;5102366;28;20056;-59
2023/06/28 07:38:48;;;;;;;6.15;4.47;;;;;;;;;;5102728;27;20481;-57
2023/06/28 07:41:15;;;;;;;7.00;3.55;;;;;;;;;;5101773;27;20102;-59
2023/06/28 07:43:41;;;;;;;10.00;4.40;;;;;;;;;;5102858;27;20057;-60
2023/06/28 07:46:08;;;;;;;8.65;4.38;;;;;;;;;;5103562;27;20524;-59
2023/06/28 07:48:34;;;;;;;9.50;3.95;;;;;;;;;;5103821;28;20099;-57
2023/06/28 07:51:01;;;;;;;9.32;4.20;;;;;;;;;;5103461;28;20080;-60
2023/06/28 07:53:27;;;;;;;10.02;4.22;;;;;;;;;;5101060;27;20062;-59
2023/06/28 07:55:53;;;;;;;10.30;4.15;;;;;;;;;;5100695;28;20138;-61
2023/06/28 07:58:20;;;;;;;6.72;4.43;;;;;;;;;;5099450;27;20067;-61
2023/06/28 08:00:46;;;;;;;7.05;3.95;;;;;;;;;;5097500;28;20139;-60
2023/06/28 08:03:12;;;;;;;8.02;4.30;;;;;;;;;;5103694;28;20052;-60
2023/06/28 08:05:39;;;;;;;12.82;4.70;;;;;;;;;;5102119;27;20040;-61
2023/06/28 08:08:06;;;;;;;8.50;4.63;;;;;;;;;;5101145;27;20494;-61
2023/06/28 08:10:33;;;;;;;9.90;4.35;;;;;;;;;;5083463;27;20063;-60
2023/06/28 08:12:59;;;;;;;7.47;3.90;;;;;;;;;;5099604;28;20048;-61
2023/06/28 08:15:26;;;;;;;12.15;4.85;;;;;;;;;;5102596;28;20072;-60
2023/06/28 08:17:52;;;;;;;6.60;3.92;;;;;;;;;;5106023;27;20524;-59
2023/06/28 08:20:19;;;;;;;9.88;4.50;;;;;;;;;;5102404;27;20139;-61
2023/06/28 08:22:45;;;;;;;8.23;4.78;;;;;;;;;;5102776;27;20213;-61
2023/06/28 08:25:12;;;;;;;11.05;4.75;;;;;;;;;;5102699;27;20239;-61
2023/06/28 08:27:38;;;;;;;10.25;4.63;;;;;;;;;;5102163;28;20131;-61
2023/06/28 08:30:05;;;;;;;8.20;4.55;;;;;;;;;;5102939;28;20075;-61
2023/06/28 08:32:32;;;;;;;11.32;5.10;;;;;;;;;;5102448;28;20417;-61
2023/06/28 08:34:58;;;;;;;8.25;4.60;;;;;;;;;;5101630;27;20064;-60
2023/06/28 08:37:25;;;;;;;8.27;4.43;;;;;;;;;;5100536;27;20052;-59
2023/06/28 08:39:51;;;;;;;10.38;5.00;;;;;;;;;;5084195;28;20056;-58
2023/06/28 08:42:18;;;;;;;10.40;4.70;;;;;;;;;;5102684;27;20052;-61
2023/06/28 08:44:46;;;;;;;10.55;4.65;;;;;;;;;;5101394;27;20515;-61
2023/06/28 08:47:13;;;;;;;7.60;4.63;;;;;;;;;;5102926;27;20164;-59
2023/06/28 08:49:40;;;;;;;6.72;4.95;;;;;;;;;;5102575;28;20484;-60
2023/06/28 08:52:07;;;;;;;8.70;5.25;;;;;;;;;;5103016;27;20052;-61
2023/06/28 08:54:34;;;;;;;7.70;4.70;;;;;;;;;;5106225;27;20056;-61
2023/06/28 08:57:01;;;;;;;10.57;4.85;;;;;;;;;;5087542;28;20052;-60
2023/06/28 08:59:37;;;;;;;9.48;4.80;;;;;;;;;;5105000;27;20470;-60
2023/06/28 09:02:04;;;;;;;10.07;5.28;;;;;;;;;;5106605;28;20941;-59
2023/06/28 09:04:31;;;;;;;10.27;5.25;;;;;;;;;;5103919;27;20433;-61
2023/06/28 09:06:58;;;;;;;10.10;5.25;;;;;;;;;;5105594;28;20505;-57
2023/06/28 09:09:26;;;;;;;9.88;5.28;;;;;;;;;;5105919;28;20137;-59
2023/06/28 09:11:53;;;;;;;11.15;5.72;;;;;;;;;;5103691;27;20048;-58
2023/06/28 09:14:19;;;;;;;11.43;5.72;;;;;;;;;;5101844;27;20059;-59
2023/06/28 09:16:46;;;;;;;12.75;5.82;;;;;;;;;;5087095;27;20491;-62
2023/06/28 09:19:12;;;;;;;8.27;5.57;;;;;;;;;;5106346;28;20101;-60
2023/06/28 09:21:39;;;;;;;8.93;5.05;;;;;;;;;;5105686;28;20082;-61
2023/06/28 09:24:10;;;;;;;12.43;5.70;;;;;;;;;;5105200;27;20156;-58
2023/06/28 09:26:36;;;;;;;10.88;5.97;;;;;;;;;;5105149;27;20132;-61
2023/06/28 09:29:10;;;;;;;12.50;6.43;;;;;;;;;;5105284;27;20166;-61
2023/06/28 09:31:40;;;;;;;15.47;7.87;;;;;;;;;;5105569;28;20064;-61
2023/06/28 09:34:07;;;;;;;13.40;5.28;;;;;;;;;;5105573;28;20524;-61
2023/06/28 09:36:34;;;;;;;8.50;5.57;;;;;;;;;;5105443;28;20344;-61
2023/06/28 09:39:02;;;;;;;11.18;5.97;;;;;;;;;;5105244;28;20048;-61
2023/06/28 09:41:39;;;;;;;13.40;6.25;;;;;;;;;;5105046;27;20926;-61
2023/06/28 09:44:06;;;;;;;11.15;6.25;;;;;;;;;;5105088;27;20044;-61
2023/06/28 09:46:33;;;;;;;13.90;3.92;;;;;;;;;;5105299;27;20135;-63
2023/06/28 09:49:00;;;;;;;10.45;5.65;;;;;;;;;;5105073;28;20382;-61
2023/06/28 09:51:27;;;;;;;11.95;5.65;;;;;;;;;;5105084;27;20471;-61
2023/06/28 09:53:54;;;;;;;11.18;5.88;;;;;;;;;;5104107;28;20151;-61
2023/06/28 09:56:22;;;;;;;8.38;5.28;;;;;;;;;;5107732;27;20142;-61
2023/06/28 09:58:49;;;;;;;10.27;5.57;;;;;;;;;;5105544;27;20413;-61
2023/06/28 10:01:15;;;;;;;12.32;5.85;;;;;;;;;;5108118;27;20052;-60
2023/06/28 10:03:43;;;;;;;21.30;6.55;;;;;;;;;;5104062;27;20058;-59
2023/06/28 10:06:11;;;;;;;11.38;6.10;;;;;;;;;;5090086;28;20533;-58
2023/06/28 10:08:38;;;;;;;11.68;5.43;;;;;;;;;;5098895;28;20192;-59
2023/06/28 10:11:09;;;;;;;12.40;5.93;;;;;;;;;;5105200;28;20529;-60
2023/06/28 10:13:36;;;;;;;14.82;6.20;;;;;;;;;;5104500;28;20564;-60
2023/06/28 10:16:05;;;;;;;14.40;6.35;;;;;;;;;;5105284;28;20052;-60
2023/06/28 10:18:31;;;;;;;12.95;5.47;;;;;;;;;;5104616;27;20056;-60
2023/06/28 10:20:59;;;;;;;12.48;6.55;;;;;;;;;;5105591;28;20515;-60
2023/06/28 10:23:26;;;;;;;13.20;6.38;;;;;;;;;;5104599;27;20109;-61
2023/06/28 10:25:54;;;;;;;12.63;7.38;;;;;;;;;;5107556;28;20056;-60
2023/06/28 10:28:20;;;;;;;13.00;6.68;;;;;;;;;;5106324;28;20136;-58
2023/06/28 10:30:47;;;;;;;14.07;6.35;;;;;;;;;;5107035;28;20058;-62
2023/06/28 10:33:14;;;;;;;16.27;6.78;;;;;;;;;;5106211;28;20505;-60
2023/06/28 10:35:42;;;;;;;15.32;6.65;;;;;;;;;;5085398;28;20052;-60
2023/06/28 10:38:09;;;;;;;9.00;5.55;;;;;;;;;;5105069;27;20048;-64
2023/06/28 10:40:36;;;;;;;13.30;5.22;;;;;;;;;;5104368;28;20054;-63
2023/06/28 10:43:03;;;;;;;7.20;4.80;;;;;;;;;;5104778;28;20052;-63
2023/06/28 10:45:33;;;;;;;14.90;6.32;;;;;;;;;;5104411;28;20135;-62
2023/06/28 10:48:00;;;;;;;11.80;6.70;;;;;;;;;;5104728;28;20083;-63
2023/06/28 10:50:27;;;;;;;12.18;6.40;;;;;;;;;;5104354;27;20141;-63
2023/06/28 10:52:54;;;;;;;9.50;6.25;;;;;;;;;;5092695;27;20050;-63
2023/06/28 10:55:21;;;;;;;10.45;6.10;;;;;;;;;;5095633;27;20078;-63
2023/06/28 10:58:03;;;;;;;10.90;7.45;;;;;;;;;;5106234;27;20078;-63
2023/06/28 11:00:45;;;;;;;12.00;6.10;;;;;;;;;;5104731;27;20052;-64
2023/06/28 11:03:13;;;;;;;13.77;7.32;;;;;;;;;;5100932;27;20101;-62
2023/06/28 11:05:53;;;;;;;11.68;7.70;;;;;;;;;;5103890;28;20052;-64
2023/06/28 11:08:21;;;;;;;12.32;8.07;;;;;;;;;;5103902;28;20060;-62
2023/06/28 11:10:48;;;;;;;11.45;7.57;;;;;;;;;;5103810;27;20137;-60
2023/06/28 11:13:29;;;;;;;9.95;6.95;;;;;;;;;;5103848;27;20075;-60
2023/06/28 11:16:03;;;;;;;12.77;7.75;;;;;;;;;;5101117;27;20047;-58
2023/06/28 12:39:32;;;;;;;17.42;9.35;;;;;;;;;;5137436;27;20393;-59
2023/06/28 12:41:59;;;;;;;17.38;10.43;;;;;;;;;;5129206;27;20928;-59
2023/06/28 12:44:25;;;;;;;13.90;10.45;;;;;;;;;;5125882;27;20096;-57
2023/06/28 12:46:52;;;;;;;22.15;10.93;;;;;;;;;;5124885;27;20051;-58
2023/06/28 12:49:18;;;;;;;21.40;11.35;;;;;;;;;;5120359;27;20044;-57
2023/06/28 12:51:47;;;;;;;18.17;11.35;;;;;;;;;;5123157;27;20533;-58
2023/06/28 12:54:14;;;;;;;15.25;10.23;;;;;;;;;;5122315;27;20058;-56
2023/06/28 12:56:40;;;;;;;18.75;11.23;;;;;;;;;;5120486;27;20083;-63
2023/06/28 12:59:07;;;;;;;16.52;11.98;;;;;;;;;;5121308;27;20468;-55
2023/06/28 13:01:33;;;;;;;21.38;10.85;;;;;;;;;;5121197;27;20117;-58
2023/06/28 13:04:00;;;;;;;19.10;12.02;;;;;;;;;;5097978;27;20055;-57
2023/06/28 13:06:26;;;;;;;24.80;11.75;;;;;;;;;;5119765;27;22450;-53
2023/06/28 13:08:53;;;;;;;20.23;12.43;;;;;;;;;;5114472;27;20056;-54
2023/06/28 13:11:19;;;;;;;16.92;11.85;;;;;;;;;;5123788;27;20148;-52
2023/06/28 13:13:45;;;;;;;16.02;10.13;;;;;;;;;;5118613;27;20105;-50
2023/06/28 13:16:12;;;;;;;21.75;11.00;;;;;;;;;;5118981;27;20048;-53
2023/06/28 13:18:38;;;;;;;19.17;11.82;;;;;;;;;;5110239;27;20052;-51
2023/06/28 13:21:05;;;;;;;21.83;11.05;;;;;;;;;;5120746;27;20060;-54
2023/06/28 13:23:32;;;;;;;14.95;11.57;;;;;;;;;;5120025;27;20056;-51
2023/06/28 13:25:59;;;;;;;19.45;11.77;;;;;;;;;;5123737;27;20060;-52
2023/06/28 13:28:26;;;;;;;22.83;12.02;;;;;;;;;;5118529;27;20044;-52
2023/06/28 13:30:53;;;;;;;17.52;11.20;;;;;;;;;;5118509;27;20644;-53
2023/06/28 13:33:19;;;;;;;16.95;11.40;;;;;;;;;;5119234;27;20062;-52
2023/06/28 13:35:45;;;;;;;14.30;11.02;;;;;;;;;;5118738;27;20058;-51
2023/06/28 13:38:12;;;;;;;17.27;11.40;;;;;;;;;;5113066;27;20190;-55
2023/06/28 13:40:39;;;;;;;19.02;12.00;;;;;;;;;;5119970;27;20051;-51
2023/06/28 13:43:07;;;;;;;16.80;11.18;;;;;;;;;;5117256;27;20062;-49
2023/06/28 13:45:33;;;;;;;22.42;11.00;;;;;;;;;;5104923;27;20058;-52
2023/06/28 13:48:00;;;;;;;16.48;11.30;;;;;;;;;;5105314;27;20095;-51
2023/06/28 13:50:27;;;;;;;18.95;12.23;;;;;;;;;;5103411;27;20056;-51
2023/06/28 13:52:53;;;;;;;21.40;12.52;;;;;;;;;;5103108;28;20048;-50
2023/06/28 13:55:20;;;;;;;18.55;11.05;;;;;;;;;;5104950;27;20053;-56
2023/06/28 13:57:46;;;;;;;18.27;10.77;;;;;;;;;;5100015;27;20059;-57
2023/06/28 14:00:13;;;;;;;17.33;11.30;;;;;;;;;;5108616;27;20044;-54
2023/06/28 14:02:40;;;;;;;17.70;11.70;;;;;;;;;;5109223;27;20128;-52
2023/06/28 14:22:33;;;;;;;21.00;11.43;;;;;;;;;;5116163;22;20900;-72
2023/06/28 14:25:00;;;;;;;28.98;11.90;;;;;;;;;;5098230;28;20199;-73
2023/06/28 14:27:26;;;;;;;16.42;11.57;;;;;;;;;;5089251;27;20143;-74
2023/06/28 14:29:53;;;;;;;19.08;11.85;;;;;;;;;;5099280;28;20864;-75
2023/06/28 14:32:19;;;;;;;26.08;12.23;;;;;;;;;;5085237;28;20049;-74
2023/06/28 14:34:46;;;;;;;20.95;12.30;;;;;;;;;;5079020;28;20165;-74
2023/06/28 14:37:12;;;;;;;22.27;12.07;;;;;;;;;;5091422;28;20582;-74
2023/06/28 14:39:39;;;;;;;20.90;12.15;;;;;;;;;;5099906;28;20135;-74
2023/06/28 14:42:06;;;;;;;22.05;12.93;;;;;;;;;;5093094;28;20106;-73
2023/06/28 14:44:32;;;;;;;25.20;13.27;;;;;;;;;;5099893;27;20106;-73
2023/06/28 14:47:01;;;;;;;23.65;13.45;;;;;;;;;;5098990;28;20187;-73
2023/06/28 14:49:27;;;;;;;22.35;12.70;;;;;;;;;;5084309;27;20163;-71
2023/06/28 14:51:54;;;;;;;19.77;11.48;;;;;;;;;;5088794;27;22221;-70
2023/06/28 14:54:20;;;;;;;23.17;12.40;;;;;;;;;;5097216;27;20541;-71
2023/06/28 14:56:47;;;;;;;22.25;12.65;;;;;;;;;;5096531;27;20060;-71
2023/06/28 14:59:13;;;;;;;22.50;12.45;;;;;;;;;;5098572;27;20399;-71
2023/06/28 15:01:40;;;;;;;20.65;12.15;;;;;;;;;;5094339;27;20056;-73
2023/06/28 15:04:06;;;;;;;19.88;12.70;;;;;;;;;;5095753;28;20060;-71
2023/06/28 15:06:33;;;;;;;27.02;12.77;;;;;;;;;;5096441;27;20139;-68
2023/06/28 15:46:48;;;;;;;24.80;14.60;;;;;;;;;;5099809;28;20732;-65
2023/06/28 15:49:17;;;;;;;38.70;18.63;;;;;;;;;;5077359;28;20517;-63
2023/06/28 15:51:44;;;;;;;27.83;15.43;;;;;;;;;;5078503;28;20099;-64
2023/06/28 15:54:10;;;;;;;17.65;11.35;;;;;;;;;;5074552;28;20053;-64
2023/06/28 15:56:38;;;;;;;25.27;11.88;;;;;;;;;;5076523;28;20137;-65
2023/06/28 15:59:05;;;;;;;20.10;11.20;;;;;;;;;;5078477;28;20139;-65
2023/06/28 16:01:32;;;;;;;26.58;10.50;;;;;;;;;;5077108;28;20473;-65
2023/06/28 16:03:58;;;;;;;19.30;9.50;;;;;;;;;;5078786;28;20553;-64
2023/06/28 16:06:25;;;;;;;16.40;10.40;;;;;;;;;;5074736;28;20576;-66
2023/06/28 16:08:51;;;;;;;16.10;9.95;;;;;;;;;;5075673;28;20045;-65
2023/06/28 16:11:20;;;;;;;18.13;10.27;;;;;;;;;;5075245;28;20056;-63
2023/06/28 16:13:46;;;;;;;18.80;9.90;;;;;;;;;;5076129;28;20523;-64
2023/06/28 16:16:13;;;;;;;15.55;9.13;;;;;;;;;;5078730;28;20409;-65
2023/06/28 16:18:39;;;;;;;26.45;10.13;;;;;;;;;;5079164;28;20053;-65
2023/06/28 16:21:06;;;;;;;16.65;9.38;;;;;;;;;;5073269;28;20052;-65
2023/06/28 16:23:33;;;;;;;19.98;11.05;;;;;;;;;;5076877;28;20132;-64
2023/06/28 16:25:59;;;;;;;25.63;10.80;;;;;;;;;;5075741;28;20056;-64
2023/06/28 16:28:25;;;;;;;20.48;10.25;;;;;;;;;;5076014;28;20053;-64
2023/06/28 16:30:53;;;;;;;20.23;10.32;;;;;;;;;;5076801;28;20049;-63
2023/06/28 16:33:20;;;;;;;19.67;10.82;;;;;;;;;;5077505;28;20053;-63
2023/06/28 16:35:46;;;;;;;24.77;10.82;;;;;;;;;;5076869;28;20077;-63
2023/06/28 16:38:12;;;;;;;15.40;9.75;;;;;;;;;;5076021;28;21106;-64
2023/06/28 16:40:39;;;;;;;19.42;10.27;;;;;;;;;;5073374;28;20056;-63
2023/06/28 16:43:05;;;;;;;18.02;9.93;;;;;;;;;;5076939;28;20049;-49
2023/06/28 16:45:33;;;;;;;17.65;9.48;;;;;;;;;;5071401;28;20621;-62
2023/06/28 16:47:59;;;;;;;18.90;9.98;;;;;;;;;;5075591;28;20049;-64
2023/06/28 16:50:26;;;;;;;20.08;9.95;;;;;;;;;;5076270;28;20078;-64